createdAt,value
2017-01-04T00:02:39.888Z,98.742
2017-01-04T00:05:31.523Z,99.235
2017-01-04T00:08:24.671Z,99.179
2017-01-04T00:14:12.816Z,99.041
2017-01-04T00:17:04.366Z,98.770
2017-01-04T00:19:59.353Z,98.787
2017-01-04T00:22:52.601Z,99.096
2017-01-04T00:25:44.051Z,98.846
2017-01-04T00:28:39.197Z,98.492
2017-01-04T00:31:32.385Z,98.520
2017-01-04T00:34:24.052Z,98.569
2017-01-04T00:37:18.910Z,98.452
2017-01-04T00:40:12.179Z,98.478
2017-01-04T00:43:03.785Z,98.117
2017-01-04T00:45:56.985Z,98.443
2017-01-04T00:48:50.119Z,98.886
2017-01-04T00:51:43.413Z,99.209
2017-01-04T00:54:38.431Z,99.300
2017-01-04T00:57:31.560Z,99.602
2017-01-04T01:00:23.002Z,99.595
2017-01-04T01:03:16.221Z,99.374
2017-01-04T01:06:09.301Z,99.790
2017-01-04T01:09:02.816Z,100.000
2017-01-04T01:11:57.699Z,100.000
2017-01-04T01:14:51.422Z,99.918
2017-01-04T01:17:42.983Z,99.667
2017-01-04T01:20:36.188Z,98.931
2017-01-04T01:23:29.359Z,98.819
2017-01-04T01:26:22.656Z,99.101
2017-01-04T01:29:17.578Z,99.369
2017-01-04T01:32:10.729Z,99.794
2017-01-04T01:35:03.985Z,99.882
2017-01-04T01:37:57.290Z,98.781
2017-01-04T01:40:48.655Z,98.601
2017-01-04T01:43:41.914Z,97.510
2017-01-04T01:46:35.010Z,97.573
2017-01-04T01:49:28.089Z,98.120
2017-01-04T01:52:22.887Z,98.458
2017-01-04T01:55:14.384Z,98.960
2017-01-04T01:58:07.357Z,99.116
2017-01-04T02:01:00.473Z,99.238
2017-01-04T02:03:55.365Z,99.493
2017-01-04T02:06:48.419Z,99.773
2017-01-04T02:09:41.636Z,100.000
2017-01-04T02:12:32.944Z,99.575
2017-01-04T02:15:27.803Z,99.784
2017-01-04T02:18:19.997Z,99.663
2017-01-04T02:21:14.175Z,99.219
2017-01-04T02:24:05.453Z,99.332
2017-01-04T02:27:00.377Z,99.211
2017-01-04T02:29:51.890Z,99.083
2017-01-04T02:32:46.808Z,98.839
2017-01-04T02:35:39.840Z,98.908
2017-01-04T02:38:31.281Z,99.155
2017-01-04T02:41:24.474Z,99.528
2017-01-04T02:44:17.730Z,99.561
2017-01-04T02:47:12.628Z,99.827
2017-01-04T02:50:05.851Z,99.776
2017-01-04T02:52:57.356Z,99.660
2017-01-04T02:55:50.506Z,99.410
2017-01-04T02:58:45.504Z,99.518
2017-01-04T03:01:36.844Z,99.457
2017-01-04T03:04:31.733Z,99.257
2017-01-04T03:07:25.102Z,99.102
2017-01-04T03:10:18.303Z,98.902
2017-01-04T03:13:12.436Z,98.984
2017-01-04T03:16:02.892Z,99.018
2017-01-04T03:18:57.735Z,98.712
2017-01-04T03:21:49.088Z,98.641
2017-01-04T03:24:42.200Z,98.597
2017-01-04T03:27:35.639Z,98.498
2017-01-04T03:30:28.876Z,98.621
2017-01-04T03:33:23.839Z,98.566
2017-01-04T03:36:15.281Z,98.437
2017-01-04T03:39:10.227Z,98.523
2017-01-04T03:42:03.420Z,98.328
2017-01-04T03:44:55.000Z,98.245
2017-01-04T03:47:48.193Z,98.250
2017-01-04T03:50:41.404Z,98.134
2017-01-04T03:53:34.615Z,98.063
2017-01-04T03:56:29.542Z,98.084
2017-01-04T03:59:21.016Z,97.727
2017-01-04T04:02:15.998Z,97.760
2017-01-04T04:05:07.400Z,97.464
2017-01-04T04:08:02.387Z,97.349
2017-01-04T04:10:54.687Z,96.900
2017-01-04T04:13:46.834Z,96.924
2017-01-04T04:19:33.257Z,95.870
2017-01-04T04:22:26.422Z,95.528
2017-01-04T04:25:19.644Z,95.875
2017-01-04T04:28:14.473Z,95.797
2017-01-04T04:31:07.577Z,95.644
2017-01-04T04:34:00.890Z,95.549
2017-01-04T04:36:53.889Z,95.172
2017-01-04T04:39:45.305Z,95.130
2017-01-04T04:42:40.189Z,94.455
2017-01-04T04:45:31.678Z,94.793
2017-01-04T04:48:26.452Z,94.806
2017-01-04T04:51:17.830Z,94.740
2017-01-04T04:54:12.612Z,94.108
2017-01-04T04:57:05.853Z,94.356
2017-01-04T04:59:57.206Z,93.946
2017-01-04T05:02:51.980Z,93.882
2017-01-04T05:05:43.407Z,93.393
2017-01-04T05:08:38.281Z,93.772
2017-01-04T05:11:29.650Z,93.501
2017-01-04T05:14:24.556Z,92.895
2017-01-04T05:17:15.904Z,93.153
2017-01-04T05:20:09.091Z,93.535
2017-01-04T05:23:02.249Z,93.421
2017-01-04T05:25:55.932Z,93.497
2017-01-04T05:28:49.152Z,93.649
2017-01-04T05:31:42.273Z,93.550
2017-01-04T05:34:35.436Z,94.067
2017-01-04T05:37:30.348Z,94.239
2017-01-04T05:40:23.467Z,94.271
2017-01-04T05:43:16.678Z,94.224
2017-01-04T05:46:08.177Z,94.594
2017-01-04T05:49:01.300Z,94.588
2017-01-04T05:51:54.505Z,94.853
2017-01-04T05:54:47.689Z,95.149
2017-01-04T05:57:42.539Z,95.143
2017-01-04T06:00:35.773Z,94.671
2017-01-04T06:03:28.887Z,94.521
2017-01-04T06:06:20.348Z,94.412
2017-01-04T06:09:13.558Z,94.123
2017-01-04T06:12:06.648Z,94.418
2017-01-04T06:14:59.857Z,93.872
2017-01-04T06:17:53.013Z,92.855
2017-01-04T06:20:47.969Z,92.750
2017-01-04T06:23:39.464Z,93.391
2017-01-04T06:26:34.520Z,93.001
2017-01-04T06:29:25.885Z,92.043
2017-01-04T06:32:19.077Z,92.101
2017-01-04T06:35:13.965Z,91.376
2017-01-04T06:38:05.541Z,91.238
2017-01-04T06:40:58.781Z,91.073
2017-01-04T06:43:51.994Z,91.891
2017-01-04T06:46:45.735Z,91.141
2017-01-04T06:49:40.539Z,91.116
2017-01-04T06:52:33.786Z,91.768
2017-01-04T06:55:25.331Z,91.379
2017-01-04T06:58:20.301Z,90.855
2017-01-04T07:01:13.399Z,90.899
2017-01-04T07:04:04.843Z,91.424
2017-01-04T07:06:58.037Z,91.444
2017-01-04T07:09:51.257Z,91.520
2017-01-04T07:12:44.371Z,90.927
2017-01-04T07:15:37.374Z,91.439
2017-01-04T07:18:30.613Z,90.241
2017-01-04T07:21:25.631Z,90.051
2017-01-04T07:24:17.076Z,91.332
2017-01-04T07:27:10.334Z,90.833
2017-01-04T07:30:03.512Z,90.191
2017-01-04T07:32:58.340Z,90.461
2017-01-04T07:35:51.438Z,91.305
2017-01-04T07:38:43.029Z,90.511
2017-01-04T07:41:37.187Z,90.077
2017-01-04T07:44:31.109Z,90.448
2017-01-04T07:47:22.425Z,89.999
2017-01-04T07:50:15.464Z,89.941
2017-01-04T07:53:08.591Z,89.958
2017-01-04T07:56:03.471Z,89.866
2017-01-04T07:58:56.668Z,89.950
2017-01-04T08:01:48.087Z,89.291
2017-01-04T08:04:42.061Z,89.612
2017-01-04T08:07:34.525Z,89.393
2017-01-04T08:10:27.663Z,89.118
2017-01-04T08:13:20.808Z,89.153
2017-01-04T08:16:14.044Z,89.756
2017-01-04T08:19:07.242Z,88.772
2017-01-04T08:22:02.109Z,89.090
2017-01-04T08:24:53.479Z,89.100
2017-01-04T08:27:48.512Z,89.212
2017-01-04T08:30:41.542Z,88.551
2017-01-04T08:33:34.718Z,87.858
2017-01-04T08:36:26.153Z,87.312
2017-01-04T08:39:20.948Z,88.436
2017-01-04T08:42:12.348Z,88.348
2017-01-04T08:45:05.522Z,87.272
2017-01-04T08:48:00.290Z,88.644
2017-01-04T08:50:53.616Z,87.497
2017-01-04T08:53:45.221Z,88.342
2017-01-04T08:56:38.363Z,86.590
2017-01-04T08:59:31.611Z,86.852
2017-01-04T09:02:24.830Z,87.957
2017-01-04T09:05:19.704Z,86.924
2017-01-04T09:08:11.223Z,87.418
2017-01-04T09:11:04.509Z,86.343
2017-01-04T09:13:57.687Z,85.923
2017-01-04T09:16:50.860Z,86.982
2017-01-04T09:19:44.087Z,86.429
2017-01-04T09:22:37.242Z,86.988
2017-01-04T09:25:32.208Z,87.020
2017-01-04T09:28:23.576Z,86.982
2017-01-04T09:31:18.470Z,87.420
2017-01-04T09:34:11.531Z,88.462
2017-01-04T09:37:04.664Z,87.966
2017-01-04T09:39:57.602Z,88.563
2017-01-04T09:42:49.090Z,88.779
2017-01-04T09:45:42.266Z,88.796
2017-01-04T09:48:35.369Z,88.777
2017-01-04T09:51:28.664Z,89.151
2017-01-04T09:54:22.415Z,88.715
2017-01-04T09:57:16.548Z,88.600
2017-01-04T10:00:09.767Z,88.591
2017-01-04T10:03:01.393Z,88.822
2017-01-04T10:05:54.560Z,88.768
2017-01-04T10:08:47.773Z,89.255
2017-01-04T10:11:42.527Z,88.420
2017-01-04T10:14:34.972Z,88.785
2017-01-04T10:17:28.933Z,88.422
2017-01-04T10:20:20.147Z,88.876
2017-01-04T10:23:13.226Z,88.521
2017-01-04T10:26:08.070Z,88.899
2017-01-04T10:29:01.159Z,88.447
2017-01-04T10:31:52.691Z,89.586
2017-01-04T10:34:45.889Z,89.798
2017-01-04T10:37:40.638Z,90.510
2017-01-04T10:40:32.016Z,90.902
2017-01-04T10:43:25.084Z,90.614
2017-01-04T10:46:18.327Z,90.594
2017-01-04T10:49:11.387Z,91.099
2017-01-04T10:52:06.148Z,90.272
2017-01-04T10:54:59.373Z,89.373
2017-01-04T10:57:50.814Z,90.153
2017-01-04T11:00:43.987Z,89.548
2017-01-04T11:03:38.875Z,89.541
2017-01-04T11:06:30.437Z,87.823
2017-01-04T11:09:24.038Z,86.795
2017-01-04T11:12:17.379Z,86.843
2017-01-04T11:15:10.571Z,86.617
2017-01-04T11:18:03.846Z,87.777
2017-01-04T11:20:58.508Z,87.677
2017-01-04T11:23:50.642Z,87.937
2017-01-04T11:26:43.836Z,88.988
2017-01-04T11:29:37.034Z,89.553
2017-01-04T11:32:32.003Z,89.665
2017-01-04T11:35:24.196Z,89.785
2017-01-04T11:38:17.309Z,90.304
2017-01-04T11:41:09.774Z,90.274
2017-01-04T11:46:56.665Z,90.345
2017-01-04T11:49:49.264Z,89.856
2017-01-04T11:52:42.456Z,89.792
2017-01-04T11:55:35.766Z,89.833
2017-01-04T11:58:29.990Z,88.492
2017-01-04T12:01:22.173Z,89.302
2017-01-04T12:04:17.019Z,89.413
2017-01-04T12:07:10.331Z,89.868
2017-01-04T12:10:01.633Z,90.482
2017-01-04T12:12:54.784Z,90.789
2017-01-04T12:15:49.562Z,91.537
2017-01-04T12:18:42.805Z,91.958
2017-01-04T12:21:34.987Z,93.155
2017-01-04T12:24:29.000Z,92.177
2017-01-04T12:27:22.097Z,93.118
2017-01-04T12:30:13.234Z,92.616
2017-01-04T12:33:06.359Z,92.590
2017-01-04T12:35:59.296Z,93.959
2017-01-04T12:38:54.017Z,94.727
2017-01-04T12:41:45.335Z,95.052
2017-01-04T12:44:39.833Z,95.235
2017-01-04T12:47:31.168Z,96.088
2017-01-04T12:50:24.203Z,96.529
2017-01-04T12:53:18.939Z,96.729
2017-01-04T12:56:11.977Z,96.653
2017-01-04T12:59:05.063Z,96.200
2017-01-04T13:01:58.063Z,96.602
2017-01-04T13:04:51.367Z,96.788
2017-01-04T13:07:45.000Z,96.133
2017-01-04T13:10:38.083Z,96.352
2017-01-04T13:13:29.359Z,96.386
2017-01-04T13:16:22.286Z,96.344
2017-01-04T13:19:16.919Z,96.379
2017-01-04T13:22:09.918Z,96.218
2017-01-04T13:25:02.958Z,96.922
2017-01-04T13:27:55.957Z,96.195
2017-01-04T13:30:47.130Z,96.836
2017-01-04T13:33:40.106Z,96.166
2017-01-04T13:36:34.115Z,96.759
2017-01-04T13:39:27.884Z,96.463
2017-01-04T13:42:19.009Z,96.686
2017-01-04T13:45:13.887Z,96.403
2017-01-04T13:48:06.797Z,95.839
2017-01-04T13:50:58.178Z,95.172
2017-01-04T13:53:51.243Z,95.262
2017-01-04T13:56:45.881Z,95.333
2017-01-04T13:59:38.782Z,94.868
2017-01-04T14:02:31.843Z,93.596
2017-01-04T14:05:24.944Z,93.722
2017-01-04T14:08:17.933Z,94.376
2017-01-04T14:11:09.150Z,94.462
2017-01-04T14:14:04.818Z,94.349
2017-01-04T14:16:55.140Z,94.547
2017-01-04T14:19:48.932Z,94.462
2017-01-04T14:22:41.184Z,94.368
2017-01-04T14:25:35.825Z,94.660
2017-01-04T14:28:27.197Z,94.026
2017-01-04T14:31:20.273Z,93.416
2017-01-04T14:34:13.280Z,92.313
2017-01-04T14:37:06.239Z,91.841
2017-01-04T14:40:01.538Z,91.490
2017-01-04T14:42:53.083Z,91.312
2017-01-04T14:45:47.714Z,90.889
2017-01-04T14:48:38.933Z,91.203
2017-01-04T14:51:31.898Z,89.977
2017-01-04T14:54:24.847Z,90.225
2017-01-04T14:57:17.848Z,89.932
2017-01-04T15:00:10.903Z,89.613
2017-01-04T15:03:05.675Z,89.630
2017-01-04T15:05:56.897Z,89.590
2017-01-04T15:08:51.748Z,89.402
2017-01-04T15:11:44.678Z,89.461
2017-01-04T15:14:35.944Z,87.706
2017-01-04T15:17:28.957Z,88.184
2017-01-04T15:20:21.961Z,87.984
2017-01-04T15:23:16.747Z,86.990
2017-01-04T15:26:07.908Z,87.724
2017-01-04T15:29:02.640Z,88.292
2017-01-04T15:31:54.048Z,88.818
2017-01-04T15:34:46.861Z,88.195
2017-01-04T15:37:39.902Z,88.929
2017-01-04T15:40:32.938Z,88.147
2017-01-04T15:43:25.999Z,88.609
2017-01-04T15:46:18.892Z,87.329
2017-01-04T15:49:11.776Z,88.286
2017-01-04T15:52:04.720Z,87.805
2017-01-04T15:54:59.495Z,87.480
2017-01-04T15:57:52.400Z,87.519
2017-01-04T16:00:43.657Z,87.646
2017-01-04T16:03:36.502Z,87.565
2017-01-04T16:06:31.206Z,87.876
2017-01-04T16:09:22.456Z,87.990
2017-01-04T16:12:15.478Z,88.543
2017-01-04T16:15:08.492Z,90.625
2017-01-04T16:18:01.408Z,93.382
2017-01-04T16:20:54.870Z,94.303
2017-01-04T16:23:48.685Z,95.296
2017-01-04T16:26:41.475Z,94.879
2017-01-04T16:29:34.373Z,94.979
2017-01-04T16:32:25.500Z,94.878
2017-01-04T16:35:21.048Z,93.950
2017-01-04T16:38:11.183Z,94.087
2017-01-04T16:41:04.153Z,94.525
2017-01-04T16:43:57.124Z,94.412
2017-01-04T16:46:51.615Z,94.277
2017-01-04T16:49:42.899Z,94.271
2017-01-04T16:52:35.790Z,94.431
2017-01-04T16:55:28.561Z,94.083
2017-01-04T16:58:23.651Z,93.648
2017-01-04T17:01:16.535Z,93.830
2017-01-04T17:04:07.777Z,93.358
2017-01-04T17:07:03.272Z,93.652
2017-01-04T17:09:53.583Z,92.800
2017-01-04T17:12:48.143Z,92.613
2017-01-04T17:15:42.037Z,91.655
2017-01-04T17:18:32.249Z,91.511
2017-01-04T17:21:25.090Z,92.300
2017-01-04T17:24:17.882Z,92.544
2017-01-04T17:27:10.772Z,92.957
2017-01-04T17:30:05.498Z,93.000
2017-01-04T17:32:56.642Z,93.473
2017-01-04T17:35:51.254Z,93.048
2017-01-04T17:38:42.474Z,93.318
2017-01-04T17:41:36.934Z,93.072
2017-01-04T17:44:29.796Z,93.370
2017-01-04T17:47:21.654Z,93.490
2017-01-04T17:50:13.844Z,93.579
2017-01-04T17:53:07.413Z,93.718
2017-01-04T17:56:01.423Z,93.129
2017-01-04T17:58:52.501Z,92.927
2017-01-04T18:01:47.188Z,93.789
2017-01-04T18:04:40.657Z,93.552
2017-01-04T18:07:32.850Z,93.709
2017-01-04T18:10:27.441Z,94.103
2017-01-04T18:13:19.335Z,93.616
2017-01-04T18:16:10.549Z,93.861
2017-01-04T18:19:05.088Z,94.279
2017-01-04T18:21:58.041Z,94.613
2017-01-04T18:24:50.851Z,95.002
2017-01-04T18:27:42.048Z,95.351
2017-01-04T18:30:36.572Z,95.541
2017-01-04T18:33:27.768Z,95.878
2017-01-04T18:36:20.607Z,96.238
2017-01-04T18:39:13.448Z,96.244
2017-01-04T18:42:06.411Z,96.341
2017-01-04T18:45:00.906Z,95.956
2017-01-04T18:47:52.038Z,96.254
2017-01-04T18:50:46.729Z,95.772
2017-01-04T18:53:37.848Z,95.624
2017-01-04T18:56:32.314Z,95.702
2017-01-04T18:59:25.113Z,95.460
2017-01-04T19:02:18.050Z,95.587
2017-01-04T19:05:10.920Z,94.948
2017-01-04T19:08:03.786Z,94.635
2017-01-04T19:10:56.778Z,94.431
2017-01-04T19:13:50.363Z,94.295
2017-01-04T19:16:42.246Z,93.906
2017-01-04T19:19:35.201Z,93.864
2017-01-04T19:22:28.156Z,93.176
2017-01-04T19:25:20.941Z,92.748
2017-01-04T19:28:11.989Z,92.329
2017-01-04T19:31:04.748Z,92.375
2017-01-04T19:33:58.614Z,92.202
2017-01-04T19:36:50.535Z,92.678
2017-01-04T19:39:45.259Z,92.289
2017-01-04T19:42:36.447Z,92.325
2017-01-04T19:45:29.407Z,92.250
2017-01-04T19:48:22.351Z,91.403
2017-01-04T19:51:16.992Z,91.113
2017-01-04T19:54:10.020Z,90.625
2017-01-04T19:57:01.093Z,91.176
2017-01-04T19:59:56.682Z,90.777
2017-01-04T20:02:48.592Z,89.514
2017-01-04T20:05:39.793Z,90.332
2017-01-04T20:08:34.458Z,90.689
2017-01-04T20:11:26.608Z,90.244
2017-01-04T20:14:20.433Z,90.141
2017-01-04T20:17:13.257Z,89.987
2017-01-04T20:20:06.020Z,90.105
2017-01-04T20:22:58.883Z,90.328
2017-01-04T20:25:50.027Z,90.498
2017-01-04T20:28:42.804Z,90.420
2017-01-04T20:31:37.425Z,90.648
2017-01-04T20:34:28.698Z,90.926
2017-01-04T20:37:23.424Z,90.968
2017-01-04T20:40:15.428Z,91.370
2017-01-04T20:43:07.395Z,91.303
2017-01-04T20:46:00.346Z,91.297
2017-01-04T20:48:55.459Z,90.917
2017-01-04T20:51:48.419Z,91.298
2017-01-04T20:54:41.487Z,91.834
2017-01-04T20:57:32.592Z,91.906
2017-01-04T21:00:25.459Z,91.525
2017-01-04T21:03:20.884Z,91.097
2017-01-04T21:06:10.970Z,91.196
2017-01-04T21:09:03.840Z,90.937
2017-01-04T21:11:58.221Z,90.519
2017-01-04T21:14:50.298Z,90.386
2017-01-04T21:17:43.900Z,90.367
2017-01-04T21:20:36.715Z,90.249
2017-01-04T21:23:27.718Z,90.302
2017-01-04T21:26:20.568Z,89.829
2017-01-04T21:29:13.270Z,90.933
2017-01-04T21:32:05.958Z,91.721
2017-01-04T21:35:00.591Z,92.219
2017-01-04T21:37:53.253Z,91.873
2017-01-04T21:40:46.044Z,92.838
2017-01-04T21:43:38.867Z,92.565
2017-01-04T21:46:31.539Z,93.765
2017-01-04T21:49:24.206Z,93.842
2017-01-04T21:52:15.853Z,94.068
2017-01-04T21:55:10.779Z,94.118
2017-01-04T21:58:02.402Z,93.869
2017-01-04T22:00:54.635Z,93.863
2017-01-04T22:03:46.410Z,93.422
2017-01-04T22:06:39.370Z,93.225
2017-01-04T22:09:33.022Z,93.349
2017-01-04T22:12:24.751Z,92.902
2017-01-04T22:15:17.412Z,92.950
2017-01-04T22:18:10.152Z,92.654
2017-01-04T22:21:04.587Z,92.839
2017-01-04T22:23:57.255Z,92.766
2017-01-04T22:26:50.508Z,93.082
2017-01-04T22:29:41.497Z,92.577
2017-01-04T22:32:35.921Z,92.575
2017-01-04T22:35:26.984Z,92.661
2017-01-04T22:38:22.073Z,93.170
2017-01-04T22:41:13.000Z,92.689
2017-01-04T22:44:05.771Z,92.741
2017-01-04T22:46:58.573Z,92.966
2017-01-04T22:49:51.214Z,92.761
2017-01-04T22:52:44.179Z,92.706
2017-01-04T22:55:36.854Z,92.909
2017-01-04T22:58:29.496Z,92.623
2017-01-04T23:01:23.754Z,92.602
2017-01-04T23:04:15.783Z,92.859
2017-01-04T23:07:09.178Z,92.628
2017-01-04T23:10:00.101Z,92.458
2017-01-04T23:12:54.420Z,92.302
2017-01-04T23:15:45.470Z,92.364
2017-01-04T23:18:38.189Z,91.965
2017-01-04T23:21:32.489Z,91.656
2017-01-04T23:24:23.506Z,91.487
2017-01-04T23:27:17.915Z,90.979
2017-01-04T23:30:08.930Z,91.379
2017-01-04T23:33:03.290Z,92.269
2017-01-04T23:35:56.168Z,92.618
2017-01-04T23:38:47.146Z,93.500
2017-01-04T23:41:39.902Z,94.184
2017-01-04T23:44:34.264Z,94.063
2017-01-04T23:47:25.431Z,94.138
2017-01-04T23:50:19.821Z,93.597
2017-01-04T23:53:12.534Z,92.746
2017-01-04T23:56:05.098Z,91.979
2017-01-04T23:58:56.043Z,91.248
